Aviation Digital Data Service (ADDS)

Output produced by METARs form (2255 UTC 20 January 2019)
found at http://www.aviationweather.gov/metar/data/
 
Forecast for: AMD
Text: TAF AMD NZQN 202210Z 2022/2111 22015G25KT 9999 BKN070
Forecast period: 2200 UTC 20 January 2019 to 0600 UTC 21 January 2019
Forecast type: FROM: standard forecast or significant change
Winds: from the SW (220 degrees) at 17 MPH (15 knots; 7.7 m/s)
gusting to 29 MPH (25 knots; 12.9 m/s)
Visibility: 6 or more miles 10+ km)
Ceiling: 7000 feet AGL
Clouds: broken clouds at 7000 feet AGL
Weather: no significant weather forecast for this period
Text: BECMG 2106/2107 22012KT
Forecast period: 0600 to 1100 UTC 21 January 2019
Forecast type: BECOMING: Conditions expected to become as follows by 0700 UTC 21 January 2019
Winds: from the SW (220 degrees) at 14 MPH (12 knots; 6.2 m/s)
Visibility: 6 or more miles 10+ km)
Ceiling: 7000 feet AGL
Clouds: broken clouds at 7000 feet AGL
Weather: no significant weather forecast for this period